SIA106 WSSS-WMKK
Flight info
| Callsign | SIA106 |
|---|---|
| Flight time | 0h 29m |
| Altitude | 24000 |
| Route | MASBO3A MASBO A457 GUPTA GUPTA1H |
| Aircraft | A359/H-SDE2E3GHIJ3J4J5LM1ORWXY/LB1D1 |
Departure
| Time | 2026-05-05 20:19 |
|---|---|
| Airport | Singapore Changi Airport (WSSS) |
Arrival
| Time | 2026-05-05 20:49 |
|---|---|
| Airport | Kuala Lumpur International Airport (WMKK) |
| Time | Latitude | Longitude | Altitude | Speed | Heading |
|---|---|---|---|---|---|
| 2026-05-05 20:03 | 1.34020 | 103.98573 | 31 ft | 0 kts | 292° |
| 2026-05-05 20:11 | 1.34017 | 103.98579 | 31 ft | 2 kts | 288° |
| 2026-05-05 20:12 | 1.34012 | 103.98595 | 31 ft | 2 kts | 280° |
| 2026-05-05 20:12 | 1.34013 | 103.98611 | 30 ft | 2 kts | 242° |
| 2026-05-05 20:12 | 1.34024 | 103.98622 | 28 ft | 2 kts | 207° |
| 2026-05-05 20:12 | 1.34028 | 103.98624 | 29 ft | 0 kts | 204° |
| 2026-05-05 20:14 | 1.34027 | 103.98624 | 29 ft | 0 kts | 205° |
| 2026-05-05 20:14 | 1.34018 | 103.98619 | 29 ft | 4 kts | 205° |
| 2026-05-05 20:14 | 1.33958 | 103.98593 | 31 ft | 12 kts | 204° |
| 2026-05-05 20:14 | 1.33864 | 103.98553 | 31 ft | 17 kts | 203° |
| 2026-05-05 20:15 | 1.33756 | 103.98529 | 31 ft | 13 kts | 152° |
| 2026-05-05 20:15 | 1.33703 | 103.98612 | 32 ft | 15 kts | 134° |
| 2026-05-05 20:15 | 1.33598 | 103.98605 | 32 ft | 18 kts | 202° |
| 2026-05-05 20:15 | 1.33494 | 103.98597 | 33 ft | 15 kts | 146° |
| 2026-05-05 20:16 | 1.33486 | 103.98607 | 33 ft | 0 kts | 129° |
| 2026-05-05 20:18 | 1.33480 | 103.98614 | 33 ft | 4 kts | 126° |
| 2026-05-05 20:18 | 1.33460 | 103.98650 | 34 ft | 7 kts | 112° |
| 2026-05-05 20:18 | 1.33450 | 103.98706 | 34 ft | 9 kts | 79° |
| 2026-05-05 20:18 | 1.33496 | 103.98758 | 34 ft | 12 kts | 24° |
| 2026-05-05 20:19 | 1.33768 | 103.98872 | 35 ft | 87 kts | 23° |
| 2026-05-05 20:19 | 1.34588 | 103.99218 | 37 ft | 166 kts | 22° |
| 2026-05-05 20:19 | 1.35766 | 103.99716 | 700 ft | 184 kts | 23° |
| 2026-05-05 20:19 | 1.36962 | 104.00213 | 1708 ft | 196 kts | 23° |
| 2026-05-05 20:20 | 1.38313 | 104.00786 | 2266 ft | 223 kts | 24° |
| 2026-05-05 20:20 | 1.39824 | 104.01428 | 2835 ft | 251 kts | 23° |
| 2026-05-05 20:20 | 1.41487 | 104.02133 | 3634 ft | 265 kts | 23° |
| 2026-05-05 20:20 | 1.43202 | 104.02858 | 4686 ft | 270 kts | 23° |
| 2026-05-05 20:21 | 1.44944 | 104.03595 | 5708 ft | 274 kts | 23° |
| 2026-05-05 20:21 | 1.46714 | 104.04338 | 6728 ft | 278 kts | 22° |
| 2026-05-05 20:21 | 1.48598 | 104.04840 | 7719 ft | 284 kts | 6° |
| 2026-05-05 20:21 | 1.50569 | 104.04633 | 8782 ft | 289 kts | 342° |
| 2026-05-05 20:22 | 1.52417 | 104.03803 | 9831 ft | 295 kts | 332° |
| 2026-05-05 20:22 | 1.54255 | 104.02795 | 10599 ft | 311 kts | 331° |
| 2026-05-05 20:22 | 1.56231 | 104.01700 | 10998 ft | 338 kts | 332° |
| 2026-05-05 20:22 | 1.58356 | 104.00534 | 11529 ft | 356 kts | 332° |
| 2026-05-05 20:23 | 1.60525 | 103.99354 | 12327 ft | 363 kts | 332° |
| 2026-05-05 20:23 | 1.62765 | 103.98139 | 13187 ft | 368 kts | 333° |
| 2026-05-05 20:23 | 1.65034 | 103.96912 | 13996 ft | 374 kts | 333° |
| 2026-05-05 20:23 | 1.67335 | 103.95670 | 14746 ft | 378 kts | 333° |
| 2026-05-05 20:24 | 1.69662 | 103.94413 | 15485 ft | 382 kts | 333° |
| 2026-05-05 20:24 | 1.72005 | 103.93121 | 16226 ft | 387 kts | 330° |
| 2026-05-05 20:24 | 1.74131 | 103.91442 | 16953 ft | 394 kts | 314° |
| 2026-05-05 20:24 | 1.75649 | 103.89148 | 17668 ft | 400 kts | 294° |
| 2026-05-05 20:25 | 1.76398 | 103.86455 | 18345 ft | 405 kts | 280° |
| 2026-05-05 20:25 | 1.76828 | 103.83660 | 18961 ft | 409 kts | 278° |
| 2026-05-05 20:25 | 1.77223 | 103.80835 | 19612 ft | 412 kts | 278° |
| 2026-05-05 20:25 | 1.77629 | 103.77985 | 20239 ft | 416 kts | 278° |
| 2026-05-05 20:26 | 1.78049 | 103.75108 | 20867 ft | 420 kts | 278° |
| 2026-05-05 20:26 | 1.78479 | 103.72203 | 21494 ft | 425 kts | 279° |
| 2026-05-05 20:26 | 1.78915 | 103.69272 | 22143 ft | 429 kts | 279° |
| 2026-05-05 20:26 | 1.79351 | 103.66310 | 22770 ft | 433 kts | 278° |
| 2026-05-05 20:27 | 1.79773 | 103.63353 | 23368 ft | 437 kts | 278° |
| 2026-05-05 20:27 | 1.80203 | 103.60339 | 23711 ft | 439 kts | 278° |
| 2026-05-05 20:27 | 1.80638 | 103.57300 | 23815 ft | 448 kts | 278° |
| 2026-05-05 20:27 | 1.81089 | 103.54158 | 23829 ft | 466 kts | 278° |
| 2026-05-05 20:28 | 1.81558 | 103.50898 | 23829 ft | 481 kts | 278° |
| 2026-05-05 20:28 | 1.82039 | 103.47562 | 23831 ft | 488 kts | 278° |
| 2026-05-05 20:28 | 1.82523 | 103.44197 | 23836 ft | 490 kts | 278° |
| 2026-05-05 20:28 | 1.83008 | 103.40824 | 23838 ft | 490 kts | 278° |
| 2026-05-05 20:29 | 1.83493 | 103.37456 | 23840 ft | 490 kts | 278° |
| 2026-05-05 20:29 | 1.83978 | 103.34086 | 23840 ft | 490 kts | 278° |
| 2026-05-05 20:29 | 1.84490 | 103.30718 | 23838 ft | 490 kts | 281° |
| 2026-05-05 20:29 | 1.85427 | 103.27450 | 23842 ft | 489 kts | 292° |
| 2026-05-05 20:30 | 1.86831 | 103.24361 | 23839 ft | 488 kts | 296° |
| 2026-05-05 20:30 | 1.88334 | 103.21313 | 23840 ft | 489 kts | 297° |
| 2026-05-05 20:30 | 1.89841 | 103.18272 | 23840 ft | 489 kts | 297° |
| 2026-05-05 20:30 | 1.91347 | 103.15225 | 23840 ft | 489 kts | 297° |
| 2026-05-05 20:31 | 1.92845 | 103.12182 | 23837 ft | 489 kts | 297° |
| 2026-05-05 20:31 | 1.94348 | 103.09125 | 23837 ft | 489 kts | 296° |
| 2026-05-05 20:31 | 1.95845 | 103.06074 | 23834 ft | 489 kts | 296° |
| 2026-05-05 20:31 | 1.97341 | 103.03025 | 23834 ft | 489 kts | 296° |
| 2026-05-05 20:32 | 1.98838 | 102.99974 | 23834 ft | 489 kts | 296° |
| 2026-05-05 20:32 | 2.00333 | 102.96923 | 23834 ft | 489 kts | 296° |
| 2026-05-05 20:32 | 2.01829 | 102.93872 | 23834 ft | 489 kts | 296° |
| 2026-05-05 20:32 | 2.03325 | 102.90820 | 23834 ft | 489 kts | 296° |
| 2026-05-05 20:33 | 2.04822 | 102.87766 | 23834 ft | 489 kts | 296° |
| 2026-05-05 20:33 | 2.06319 | 102.84715 | 23834 ft | 489 kts | 296° |
| 2026-05-05 20:33 | 2.07807 | 102.81663 | 23834 ft | 489 kts | 296° |
| 2026-05-05 20:33 | 2.09297 | 102.78604 | 23832 ft | 489 kts | 296° |
| 2026-05-05 20:34 | 2.10786 | 102.75550 | 23832 ft | 489 kts | 296° |
| 2026-05-05 20:34 | 2.12277 | 102.72493 | 23832 ft | 489 kts | 296° |
| 2026-05-05 20:34 | 2.13769 | 102.69433 | 23832 ft | 489 kts | 296° |
| 2026-05-05 20:34 | 2.15255 | 102.66389 | 23592 ft | 484 kts | 296° |
| 2026-05-05 20:35 | 2.16724 | 102.63381 | 22690 ft | 480 kts | 297° |
| 2026-05-05 20:35 | 2.18239 | 102.60462 | 22305 ft | 466 kts | 297° |
| 2026-05-05 20:35 | 2.19652 | 102.57580 | 21477 ft | 460 kts | 296° |
| 2026-05-05 20:35 | 2.20570 | 102.55663 | 20692 ft | 463 kts | 296° |
| 2026-05-05 20:36 | 2.21968 | 102.52751 | 19678 ft | 464 kts | 296° |
| 2026-05-05 20:36 | 2.23366 | 102.49855 | 18803 ft | 461 kts | 296° |
| 2026-05-05 20:36 | 2.24757 | 102.46985 | 17945 ft | 457 kts | 296° |
| 2026-05-05 20:36 | 2.26138 | 102.44144 | 17034 ft | 452 kts | 296° |
| 2026-05-05 20:37 | 2.27504 | 102.41337 | 16173 ft | 446 kts | 296° |
| 2026-05-05 20:37 | 2.28855 | 102.38565 | 15411 ft | 439 kts | 296° |
| 2026-05-05 20:37 | 2.30168 | 102.35871 | 15046 ft | 422 kts | 296° |
| 2026-05-05 20:37 | 2.31426 | 102.33288 | 14776 ft | 405 kts | 296° |
| 2026-05-05 20:38 | 2.32634 | 102.30810 | 14528 ft | 388 kts | 296° |
| 2026-05-05 20:38 | 2.33792 | 102.28434 | 14305 ft | 373 kts | 296° |
| 2026-05-05 20:38 | 2.34905 | 102.26151 | 14106 ft | 358 kts | 296° |
| 2026-05-05 20:38 | 2.35974 | 102.23957 | 13920 ft | 344 kts | 297° |
| 2026-05-05 20:39 | 2.37003 | 102.21846 | 13668 ft | 334 kts | 297° |
| 2026-05-05 20:39 | 2.38014 | 102.19772 | 13221 ft | 330 kts | 297° |
| 2026-05-05 20:39 | 2.39014 | 102.17723 | 12745 ft | 326 kts | 296° |
| 2026-05-05 20:39 | 2.40003 | 102.15695 | 12288 ft | 323 kts | 296° |
| 2026-05-05 20:40 | 2.40982 | 102.13687 | 11830 ft | 320 kts | 296° |
| 2026-05-05 20:40 | 2.41952 | 102.11698 | 11375 ft | 317 kts | 296° |
| 2026-05-05 20:40 | 2.42914 | 102.09725 | 10930 ft | 314 kts | 296° |
| 2026-05-05 20:40 | 2.43865 | 102.07774 | 10477 ft | 311 kts | 295° |
| 2026-05-05 20:41 | 2.44808 | 102.05840 | 10057 ft | 308 kts | 295° |
| 2026-05-05 20:41 | 2.45742 | 102.03924 | 9602 ft | 305 kts | 295° |
| 2026-05-05 20:41 | 2.46668 | 102.02022 | 9079 ft | 304 kts | 295° |
| 2026-05-05 20:41 | 2.47591 | 102.00128 | 8601 ft | 301 kts | 295° |
| 2026-05-05 20:42 | 2.48491 | 101.98278 | 8144 ft | 298 kts | 295° |
| 2026-05-05 20:42 | 2.49410 | 101.96393 | 7670 ft | 296 kts | 296° |
| 2026-05-05 20:42 | 2.50292 | 101.94583 | 7316 ft | 289 kts | 296° |
| 2026-05-05 20:42 | 2.51153 | 101.92815 | 7150 ft | 276 kts | 296° |
| 2026-05-05 20:43 | 2.51966 | 101.91145 | 6955 ft | 256 kts | 296° |
| 2026-05-05 20:43 | 2.52714 | 101.89610 | 6755 ft | 236 kts | 296° |
| 2026-05-05 20:43 | 2.53407 | 101.88187 | 6575 ft | 219 kts | 296° |
| 2026-05-05 20:43 | 2.54059 | 101.86848 | 6226 ft | 213 kts | 296° |
| 2026-05-05 20:44 | 2.54720 | 101.85492 | 5536 ft | 223 kts | 296° |
| 2026-05-05 20:44 | 2.55426 | 101.84042 | 4608 ft | 241 kts | 296° |
| 2026-05-05 20:44 | 2.56180 | 101.82500 | 3728 ft | 250 kts | 296° |
| 2026-05-05 20:44 | 2.57259 | 101.81209 | 3277 ft | 236 kts | 323° |
| 2026-05-05 20:45 | 2.59820 | 101.79570 | 2847 ft | 204 kts | 328° |
| 2026-05-05 20:45 | 2.60956 | 101.78804 | 2583 ft | 191 kts | 326° |
| 2026-05-05 20:45 | 2.62028 | 101.78070 | 2239 ft | 184 kts | 326° |
| 2026-05-05 20:46 | 2.63077 | 101.77366 | 1922 ft | 178 kts | 327° |
| 2026-05-05 20:46 | 2.64089 | 101.76697 | 1696 ft | 171 kts | 327° |
| 2026-05-05 20:46 | 2.65045 | 101.76054 | 1477 ft | 159 kts | 327° |
| 2026-05-05 20:46 | 2.65929 | 101.75457 | 1280 ft | 148 kts | 327° |
| 2026-05-05 20:47 | 2.66758 | 101.74898 | 1089 ft | 140 kts | 327° |
| 2026-05-05 20:47 | 2.67539 | 101.74373 | 936 ft | 131 kts | 327° |
| 2026-05-05 20:47 | 2.68280 | 101.73873 | 777 ft | 128 kts | 327° |
| 2026-05-05 20:47 | 2.69014 | 101.73378 | 622 ft | 127 kts | 326° |
| 2026-05-05 20:48 | 2.69746 | 101.72884 | 457 ft | 127 kts | 326° |
| 2026-05-05 20:48 | 2.70476 | 101.72392 | 303 ft | 126 kts | 326° |
| 2026-05-05 20:48 | 2.71199 | 101.71896 | 149 ft | 126 kts | 327° |
| 2026-05-05 20:48 | 2.71925 | 101.71411 | 57 ft | 120 kts | 326° |
| 2026-05-05 20:49 | 2.72437 | 101.71063 | 53 ft | 49 kts | 326° |
| 2026-05-05 20:49 | 2.72660 | 101.70913 | 53 ft | 41 kts | 326° |
| 2026-05-05 20:49 | 2.72895 | 101.70758 | 53 ft | 40 kts | 332° |
| 2026-05-05 20:49 | 2.73116 | 101.70699 | 59 ft | 30 kts | 356° |
| 2026-05-05 20:50 | 2.73282 | 101.70687 | 57 ft | 12 kts | 354° |
| 2026-05-05 20:50 | 2.73392 | 101.70658 | 60 ft | 19 kts | 343° |
| 2026-05-05 20:50 | 2.73495 | 101.70721 | 55 ft | 17 kts | 57° |
| 2026-05-05 20:50 | 2.73565 | 101.70833 | 55 ft | 21 kts | 58° |
| 2026-05-05 20:51 | 2.73651 | 101.70969 | 56 ft | 25 kts | 57° |
| 2026-05-05 20:51 | 2.73696 | 101.71104 | 61 ft | 17 kts | 110° |
| 2026-05-05 20:51 | 2.73669 | 101.71137 | 58 ft | 0 kts | 143° |